Time;durP1;ratioP1;P1;durP2;ratioP2;P2;SDS_P1;SDS_P2;PMS_P1;PMS_P2;Temp;Humidity;BMP_temperature;BMP_pressure;BME280_temperature;BME280_humidity;BME280_pressure;Samples;Min_cycle;Max_cycle;Signal;HPM_P1;HPM_P2
2022/11/25 00:01:28;;;;;;;22.50;3.65;;;;;;;14.77;58.39;101027.78;5065315;28;20464;-70
2022/11/25 00:03:56;;;;;;;23.27;4.32;;;;;;;14.96;57.48;101023.72;5072467;28;20032;-68
2022/11/25 00:06:22;;;;;;;20.90;4.10;;;;;;;14.89;57.74;101023.09;5072592;28;20033;-69
2022/11/25 00:08:51;;;;;;;17.88;3.53;;;;;;;14.84;57.48;101031.13;5072504;28;20055;-69
2022/11/25 00:11:17;;;;;;;24.75;4.30;;;;;;;15.17;56.96;101016.72;5073034;28;20058;-68
2022/11/25 00:13:43;;;;;;;18.63;3.25;;;;;;;15.20;56.74;101014.31;5056507;28;20041;-69
2022/11/25 00:16:11;;;;;;;13.55;3.08;;;;;;;14.55;58.12;101016.91;5062645;28;20048;-68
2022/11/25 00:18:38;;;;;;;13.90;4.03;;;;;;;15.12;56.67;101005.78;5072034;28;20052;-69
2022/11/25 00:21:08;;;;;;;20.73;3.33;;;;;;;15.12;56.72;101017.44;5072270;28;20137;-68
2022/11/25 00:23:33;;;;;;;21.23;3.85;;;;;;;15.17;56.53;101006.72;5072794;28;20041;-68
2022/11/25 00:26:13;;;;;;;15.90;3.28;;;;;;;15.04;56.47;101015.16;5072429;28;20032;-68
2022/11/25 00:28:40;;;;;;;21.02;3.85;;;;;;;15.22;55.82;101014.06;5072351;28;20040;-69
2022/11/25 00:31:11;;;;;;;17.60;4.32;;;;;;;15.39;55.92;101006.72;5072634;28;20116;-68
2022/11/25 00:33:38;;;;;;;15.68;3.45;;;;;;;14.80;57.34;101006.44;5072254;28;20037;-69
2022/11/25 00:36:05;;;;;;;17.90;3.63;;;;;;;14.83;57.96;100999.72;5072146;28;20032;-69
2022/11/25 00:38:30;;;;;;;15.02;3.88;;;;;;;15.00;57.35;101005.13;5072842;28;20032;-68
2022/11/25 00:46:24;;;;;;;19.35;4.07;;;;;;;15.34;56.34;101004.75;5072102;28;20067;-70
2022/11/25 00:48:49;;;;;;;20.08;4.45;;;;;;;15.30;56.26;101003.63;5071950;28;20041;-69
2022/11/25 00:51:14;;;;;;;19.95;3.25;;;;;;;14.79;58.17;101004.00;5071759;28;20157;-69
2022/11/25 00:53:39;;;;;;;21.40;4.32;;;;;;;15.25;56.75;101000.81;5070979;28;20077;-69
2022/11/25 00:56:14;;;;;;;12.60;3.60;;;;;;;15.04;57.77;101006.22;5072020;28;20131;-70
2022/11/25 00:58:41;;;;;;;19.48;4.57;;;;;;;15.32;57.11;101001.47;5071799;28;20036;-68
2022/11/25 01:01:07;;;;;;;19.00;4.13;;;;;;;14.59;59.41;101015.34;5071766;28;20500;-68
2022/11/25 01:03:35;;;;;;;13.55;2.95;;;;;;;15.11;58.74;100999.59;5071794;28;20086;-68
2022/11/25 01:06:02;;;;;;;18.42;3.53;;;;;;;15.02;58.80;101002.97;5071950;28;20043;-69
2022/11/25 01:08:31;;;;;;;22.17;3.45;;;;;;;14.98;59.07;101003.47;5068888;28;20480;-68
2022/11/25 01:11:02;;;;;;;22.23;5.13;;;;;;;14.66;60.35;101010.56;5051674;28;20044;-70
2022/11/25 01:13:28;;;;;;;14.35;3.08;;;;;;;14.46;61.08;101009.44;5051902;28;20044;-70
2022/11/25 01:15:53;;;;;;;11.93;3.58;;;;;;;14.49;61.70;101008.94;5059729;28;20047;-69
2022/11/25 01:18:19;;;;;;;19.80;3.85;;;;;;;15.10;60.04;101002.53;5071675;28;20041;-68
2022/11/25 01:20:44;;;;;;;19.73;3.50;;;;;;;15.09;60.16;101003.59;5072219;28;20166;-69
2022/11/25 01:23:09;;;;;;;23.05;5.40;;;;;;;14.96;60.34;101011.00;5071548;28;20044;-69
2022/11/25 01:25:39;;;;;;;20.05;3.05;;;;;;;15.16;60.21;101007.75;5071842;28;20068;-69
2022/11/25 01:28:04;;;;;;;24.20;4.05;;;;;;;14.98;60.72;101004.56;5071737;28;20036;-70
2022/11/25 01:30:30;;;;;;;22.33;3.50;;;;;;;14.54;61.74;101004.47;5071443;28;20090;-69
2022/11/25 01:32:55;;;;;;;14.40;3.58;;;;;;;14.72;61.79;101009.56;5071507;28;20064;-70
2022/11/25 01:35:21;;;;;;;20.08;3.80;;;;;;;14.88;61.26;101000.63;5071770;28;20123;-70
2022/11/25 01:37:46;;;;;;;18.20;4.70;;;;;;;14.94;61.60;101006.91;5071520;28;20036;-69
2022/11/25 01:40:11;;;;;;;12.43;3.95;;;;;;;15.00;61.26;101000.50;5071367;28;20127;-69
2022/11/25 01:42:45;;;;;;;16.77;3.78;;;;;;;15.12;60.91;101005.78;5071569;28;20039;-70
2022/11/25 01:45:22;;;;;;;10.60;3.65;;;;;;;14.71;62.35;101001.72;5071463;28;20025;-69
2022/11/25 01:47:57;;;;;;;16.77;3.67;;;;;;;14.91;61.93;100999.31;5071606;28;20036;-69
2022/11/25 01:50:25;;;;;;;25.05;4.25;;;;;;;14.27;63.84;100999.91;5063651;28;20078;-68
2022/11/25 01:52:54;;;;;;;13.70;3.75;;;;;;;14.81;62.42;101002.69;5051378;28;20036;-69
2022/11/25 01:55:28;;;;;;;19.50;3.25;;;;;;;14.30;64.29;100997.56;5051390;28;20033;-68
2022/11/25 01:58:03;;;;;;;24.45;4.60;;;;;;;14.10;64.90;100992.63;5051397;28;20029;-69
2022/11/25 02:00:29;;;;;;;24.10;5.85;;;;;;;14.69;63.29;100995.72;5049642;28;20041;-70
2022/11/25 02:02:56;;;;;;;14.00;4.10;;;;;;;14.83;62.94;100997.84;5051303;28;20108;-70
2022/11/25 02:05:30;;;;;;;21.40;3.78;;;;;;;14.84;62.65;100995.94;5060376;28;20055;-69
2022/11/25 02:07:57;;;;;;;19.98;6.05;;;;;;;15.17;61.98;100990.47;5071183;28;20036;-69
2022/11/25 02:10:27;;;;;;;18.55;3.78;;;;;;;15.08;62.20;100996.53;5070854;28;20036;-70
2022/11/25 02:12:53;;;;;;;25.42;4.10;;;;;;;15.09;61.38;100996.31;5071265;28;20040;-71
2022/11/25 02:15:21;;;;;;;16.25;3.05;;;;;;;15.14;61.85;101000.94;5071230;28;20044;-70
2022/11/25 02:17:46;;;;;;;22.08;4.40;;;;;;;15.23;61.83;100994.88;5071595;28;20029;-69
2022/11/25 02:20:18;;;;;;;18.40;4.32;;;;;;;15.24;61.78;101003.78;5070661;28;20040;-69
2022/11/25 02:23:10;;;;;;;21.13;3.65;;;;;;;14.94;62.56;101002.31;5071119;28;20103;-70
2022/11/25 02:25:39;;;;;;;17.33;4.35;;;;;;;15.19;61.93;100996.44;5051109;28;20083;-69
2022/11/25 02:28:13;;;;;;;19.05;3.58;;;;;;;15.25;61.99;100994.63;5050929;28;20037;-69
2022/11/25 02:30:38;;;;;;;18.35;3.95;;;;;;;14.91;63.58;100999.31;5052881;28;20071;-69
2022/11/25 02:33:04;;;;;;;20.92;4.65;;;;;;;15.11;62.57;100996.88;5070964;28;20028;-70
2022/11/25 02:35:36;;;;;;;22.10;4.28;;;;;;;15.51;61.13;100993.84;5071068;28;20048;-70
2022/11/25 02:38:06;;;;;;;22.13;4.35;;;;;;;15.17;62.18;100995.06;5071087;28;20045;-69
2022/11/25 02:40:36;;;;;;;22.87;5.50;;;;;;;15.35;61.73;100997.44;5071203;28;20040;-69
2022/11/25 02:43:02;;;;;;;22.63;3.80;;;;;;;14.91;62.52;100993.91;5072625;28;20032;-69
2022/11/25 02:45:55;;;;;;;22.13;3.95;;;;;;;15.02;62.66;100998.38;5074474;28;20043;-69
2022/11/25 02:48:21;;;;;;;22.63;4.72;;;;;;;15.15;62.42;100984.47;5011844;28;20729;-69
2022/11/25 02:50:46;;;;;;;19.58;4.15;;;;;;;15.14;62.06;100993.66;5012052;28;20058;-69
2022/11/25 02:53:12;;;;;;;17.30;3.47;;;;;;;14.98;62.99;100993.72;5011950;28;20049;-70
2022/11/25 02:55:38;;;;;;;27.85;4.90;;;;;;;14.94;63.39;101006.91;5012142;28;20041;-68
2022/11/25 02:58:03;;;;;;;18.65;4.45;;;;;;;14.84;63.57;101007.59;5011716;28;20100;-69
2022/11/25 03:00:29;;;;;;;21.60;4.35;;;;;;;15.17;62.85;101000.47;5011530;28;20552;-70
2022/11/25 03:02:54;;;;;;;20.77;4.32;;;;;;;15.23;62.42;101011.13;5011409;28;20064;-69
2022/11/25 03:05:23;;;;;;;22.35;5.45;;;;;;;15.04;62.98;101000.81;5011899;28;20117;-69
2022/11/25 03:07:48;;;;;;;20.00;3.70;;;;;;;15.37;61.93;100998.03;5011569;28;20042;-69
2022/11/25 03:10:14;;;;;;;18.55;3.80;;;;;;;15.29;62.35;101007.38;5011546;28;20056;-70
2022/11/25 03:12:39;;;;;;;18.15;4.03;;;;;;;14.87;63.79;101011.69;5011474;28;20045;-72
2022/11/25 03:15:05;;;;;;;20.88;4.22;;;;;;;14.74;64.96;101012.06;5011389;28;20165;-69
2022/11/25 03:17:31;;;;;;;27.85;4.82;;;;;;;14.71;64.57;101020.66;5011987;28;20061;-69
2022/11/25 03:19:56;;;;;;;23.92;6.20;;;;;;;15.31;62.66;101017.97;5011040;28;20105;-68
2022/11/25 03:22:22;;;;;;;18.05;4.03;;;;;;;15.36;62.27;101001.78;5011325;28;20128;-68
2022/11/25 03:24:47;;;;;;;15.35;3.97;;;;;;;15.24;62.76;101012.75;5022117;28;20123;-68
2022/11/25 03:27:13;;;;;;;29.48;4.32;;;;;;;14.91;64.15;101010.97;5053537;28;20116;-69
2022/11/25 03:29:38;;;;;;;22.60;4.10;;;;;;;14.92;63.70;101009.88;5054166;28;20124;-69
2022/11/25 03:32:04;;;;;;;31.70;5.03;;;;;;;14.68;64.36;101013.84;5067325;28;20119;-69
2022/11/25 03:34:29;;;;;;;27.92;4.72;;;;;;;14.89;64.17;101021.22;5073538;28;20082;-68
2022/11/25 03:36:54;;;;;;;18.80;4.25;;;;;;;14.66;64.97;101020.59;5073169;28;20104;-69
2022/11/25 03:39:20;;;;;;;17.35;4.22;;;;;;;14.79;64.02;101021.06;5073543;28;20546;-69
2022/11/25 03:41:46;;;;;;;30.35;5.00;;;;;;;15.40;62.40;101014.56;5073730;28;20044;-69
2022/11/25 03:44:11;;;;;;;18.50;3.58;;;;;;;14.95;63.59;101022.91;5073138;28;20496;-70
2022/11/25 03:46:36;;;;;;;20.15;3.47;;;;;;;14.52;64.86;101021.97;5073205;28;20060;-67
2022/11/25 03:49:02;;;;;;;22.30;3.92;;;;;;;14.33;66.26;101034.91;5072139;28;20068;-68
2022/11/25 03:51:27;;;;;;;20.40;4.45;;;;;;;14.71;65.26;101037.72;5072868;28;20048;-69
2022/11/25 03:53:53;;;;;;;17.98;4.28;;;;;;;15.19;63.27;101025.41;5072321;28;20123;-69
2022/11/25 03:56:18;;;;;;;19.70;4.32;;;;;;;14.86;64.56;101028.97;5073893;28;20108;-68
2022/11/25 03:58:43;;;;;;;23.70;4.30;;;;;;;14.78;64.85;101032.13;5056908;28;20048;-68
2022/11/25 04:01:09;;;;;;;23.63;5.05;;;;;;;14.98;64.15;101016.16;5053074;28;20417;-68
2022/11/25 04:03:34;;;;;;;25.63;4.35;;;;;;;15.21;63.62;101013.25;5053178;28;20435;-68
2022/11/25 04:06:00;;;;;;;28.40;4.65;;;;;;;15.14;63.83;101011.78;5052563;28;20031;-68
2022/11/25 04:08:26;;;;;;;18.08;4.63;;;;;;;15.26;63.13;101020.59;5053479;28;20048;-68
2022/11/25 04:10:51;;;;;;;18.45;4.60;;;;;;;14.89;63.71;101014.97;5052825;28;20033;-68
2022/11/25 04:13:17;;;;;;;22.98;5.57;;;;;;;14.95;64.65;101016.69;5052694;28;20178;-68
2022/11/25 04:15:45;;;;;;;21.90;5.68;;;;;;;15.23;63.49;101015.69;5058963;28;20040;-69
2022/11/25 04:18:11;;;;;;;21.30;4.53;;;;;;;15.27;63.50;101014.13;5072795;28;20043;-68
2022/11/25 04:20:36;;;;;;;22.80;5.13;;;;;;;15.29;63.14;101006.59;5072726;28;20488;-71
2022/11/25 04:23:01;;;;;;;25.58;4.60;;;;;;;15.06;63.57;101009.50;5072353;28;20051;-68
2022/11/25 04:25:27;;;;;;;37.47;6.35;;;;;;;14.71;65.42;101017.94;5072708;28;20464;-68
2022/11/25 04:27:52;;;;;;;21.02;5.03;;;;;;;15.27;63.11;101020.34;5072420;28;20132;-69
2022/11/25 04:30:18;;;;;;;22.55;5.25;;;;;;;14.95;64.07;101032.91;5072130;28;20071;-69
2022/11/25 04:32:44;;;;;;;27.52;5.10;;;;;;;14.93;64.72;101037.75;5072893;28;20468;-69
2022/11/25 04:35:09;;;;;;;19.98;4.50;;;;;;;14.74;65.46;101042.59;5072349;28;20044;-69
2022/11/25 04:37:35;;;;;;;17.88;4.20;;;;;;;14.96;65.12;101039.94;5071951;28;20588;-69
2022/11/25 04:40:00;;;;;;;24.88;5.05;;;;;;;15.10;64.36;101035.00;5072094;28;20040;-68
2022/11/25 04:42:32;;;;;;;18.48;5.32;;;;;;;14.67;65.73;101043.84;5072180;28;20139;-69
2022/11/25 04:45:03;;;;;;;23.98;4.70;;;;;;;15.07;64.73;101038.22;5072475;28;20055;-68
2022/11/25 04:47:29;;;;;;;19.00;4.75;;;;;;;15.43;63.07;101046.59;5072906;28;20534;-68
2022/11/25 04:49:55;;;;;;;28.15;6.90;;;;;;;14.89;64.60;101053.69;5067739;28;20029;-70
2022/11/25 04:52:20;;;;;;;21.90;5.15;;;;;;;15.16;63.72;101061.06;5052024;28;20057;-69
2022/11/25 04:54:45;;;;;;;16.10;4.88;;;;;;;15.15;64.31;101064.88;5052926;28;20559;-69
2022/11/25 04:57:13;;;;;;;22.08;5.90;;;;;;;15.70;62.50;101062.91;5052034;28;20065;-70
2022/11/25 04:59:39;;;;;;;25.42;5.57;;;;;;;15.42;63.29;101066.63;5052314;28;20033;-69
2022/11/25 05:02:23;;;;;;;27.05;5.38;;;;;;;15.33;63.38;101068.09;5059660;28;20028;-69
2022/11/25 05:04:51;;;;;;;23.52;5.65;;;;;;;15.28;63.64;101067.19;5068882;28;20376;-69
2022/11/25 05:07:19;;;;;;;24.77;5.47;;;;;;;15.43;62.58;101078.28;5051138;28;20064;-69
2022/11/25 05:09:44;;;;;;;26.15;5.93;;;;;;;15.60;62.17;101081.75;5051291;28;20041;-68
2022/11/25 05:12:13;;;;;;;16.30;5.00;;;;;;;15.11;64.31;101082.66;5051550;28;20035;-69
2022/11/25 05:14:39;;;;;;;29.38;6.22;;;;;;;15.23;63.94;101089.63;5051639;28;20040;-70
2022/11/25 05:17:06;;;;;;;27.50;4.82;;;;;;;15.34;63.37;101090.56;5069386;28;20041;-69
2022/11/25 05:19:32;;;;;;;15.52;5.03;;;;;;;15.41;63.03;101092.03;5071881;28;20518;-69
2022/11/25 05:21:57;;;;;;;27.77;5.50;;;;;;;15.14;64.65;101095.69;5071467;28;20036;-69
2022/11/25 05:24:24;;;;;;;24.40;4.80;;;;;;;15.12;63.92;101089.72;5071432;28;20484;-69
2022/11/25 05:26:49;;;;;;;23.17;5.38;;;;;;;15.49;62.86;101088.91;5071969;28;20125;-70
2022/11/25 05:29:15;;;;;;;25.35;6.47;;;;;;;15.09;64.63;101090.22;5072016;28;20119;-70
2022/11/25 05:31:40;;;;;;;21.08;4.95;;;;;;;15.13;63.98;101088.66;5071672;28;20033;-67
2022/11/25 05:34:05;;;;;;;26.90;6.32;;;;;;;14.93;64.64;101097.28;5071546;28;20052;-69
2022/11/25 05:36:31;;;;;;;24.05;5.60;;;;;;;15.15;64.18;101105.47;5070603;28;20374;-68
2022/11/25 05:38:57;;;;;;;20.80;4.75;;;;;;;15.17;63.35;101100.63;5069402;28;20074;-68
2022/11/25 05:41:23;;;;;;;19.40;5.18;;;;;;;15.50;62.28;101101.41;5070417;28;20033;-68
2022/11/25 05:43:49;;;;;;;27.65;5.47;;;;;;;14.73;65.21;101114.03;5070045;28;20085;-68
2022/11/25 05:46:14;;;;;;;10.00;3.70;;;;;;;14.91;64.04;101119.19;5068727;28;20508;-67
2022/11/25 05:48:40;;;;;;;28.60;5.78;;;;;;;14.77;64.95;101117.06;5070079;28;20500;-68
2022/11/25 05:51:05;;;;;;;26.83;5.53;;;;;;;15.08;64.05;101121.88;5069306;28;20079;-68
2022/11/25 05:53:31;;;;;;;18.48;4.90;;;;;;;15.13;63.67;101127.38;5070430;28;20031;-68
2022/11/25 05:55:59;;;;;;;21.67;5.60;;;;;;;15.04;63.00;101125.31;5069856;28;20033;-69
2022/11/25 05:58:26;;;;;;;19.27;4.72;;;;;;;15.33;62.46;101126.84;5066800;28;20044;-68
2022/11/25 06:00:52;;;;;;;27.92;5.38;;;;;;;15.31;61.97;101129.78;5068947;28;20434;-68
2022/11/25 06:03:17;;;;;;;21.27;4.30;;;;;;;15.30;62.43;101133.59;5069536;28;20107;-68
2022/11/25 06:05:43;;;;;;;23.98;5.15;;;;;;;14.95;64.02;101142.00;5069246;28;20059;-69
2022/11/25 06:08:09;;;;;;;25.33;4.88;;;;;;;14.91;63.90;101138.13;5068684;28;20036;-69
2022/11/25 06:10:38;;;;;;;16.80;4.78;;;;;;;15.28;62.81;101134.88;5069080;28;20028;-69
2022/11/25 06:13:03;;;;;;;22.40;4.78;;;;;;;15.02;64.00;101141.00;5069858;28;20119;-69
2022/11/25 06:15:29;;;;;;;20.95;5.65;;;;;;;14.81;64.31;101137.97;5070203;28;20504;-69
2022/11/25 06:17:54;;;;;;;20.40;4.93;;;;;;;15.42;62.03;101144.34;5070373;28;20043;-69
2022/11/25 06:20:20;;;;;;;25.38;6.03;;;;;;;15.12;62.19;101146.56;5064361;28;20039;-69
2022/11/25 06:22:45;;;;;;;23.85;4.28;;;;;;;15.06;62.66;101142.97;5052196;28;20116;-70
2022/11/25 06:25:11;;;;;;;24.40;5.13;;;;;;;14.60;65.04;101156.81;5072690;28;20024;-68
2022/11/25 06:27:36;;;;;;;19.35;4.85;;;;;;;15.10;62.59;101144.09;5074011;28;20044;-70
2022/11/25 06:30:03;;;;;;;23.80;5.20;;;;;;;14.25;64.94;101148.81;5073780;28;20052;-69
2022/11/25 06:32:28;;;;;;;29.13;5.07;;;;;;;15.01;62.49;101152.88;5073724;28;20063;-70
2022/11/25 06:34:53;;;;;;;23.25;5.13;;;;;;;14.80;63.50;101155.25;5073529;28;20041;-68
2022/11/25 06:37:19;;;;;;;20.88;4.88;;;;;;;14.67;63.39;101150.16;5073435;28;20449;-68
2022/11/25 06:39:44;;;;;;;17.17;4.57;;;;;;;14.45;64.40;101154.63;5073408;28;20130;-70
2022/11/25 06:42:10;;;;;;;21.67;4.88;;;;;;;14.07;64.86;101157.94;5073212;28;20530;-69
2022/11/25 06:44:35;;;;;;;22.23;5.15;;;;;;;14.17;65.29;101173.53;5074055;28;20114;-68
2022/11/25 06:47:01;;;;;;;18.05;5.00;;;;;;;14.41;64.53;101168.88;5073467;28;20594;-70
2022/11/25 06:49:28;;;;;;;18.77;5.30;;;;;;;14.84;62.60;101172.63;5073445;28;20040;-69
2022/11/25 06:51:53;;;;;;;18.55;5.03;;;;;;;14.76;62.70;101175.75;5071923;28;20125;-69
2022/11/25 06:54:18;;;;;;;22.50;4.30;;;;;;;14.43;63.07;101180.25;5068999;28;20037;-69
2022/11/25 06:56:44;;;;;;;16.55;5.32;;;;;;;14.63;62.26;101173.38;5073027;28;20044;-69
2022/11/25 06:59:09;;;;;;;12.13;3.70;;;;;;;13.63;66.16;101193.75;5072622;28;20038;-69
2022/11/25 07:01:35;;;;;;;12.35;4.13;;;;;;;14.40;63.56;101195.13;5072861;28;20135;-69
2022/11/25 07:04:02;;;;;;;12.65;4.68;;;;;;;14.62;61.91;101187.94;5072662;28;20396;-70
2022/11/25 07:06:28;;;;;;;16.15;4.75;;;;;;;14.57;61.97;101187.84;5072825;28;20041;-69
2022/11/25 07:08:55;;;;;;;16.65;5.32;;;;;;;14.53;61.91;101196.69;5067262;28;20510;-69
2022/11/25 07:11:35;;;;;;;14.80;4.13;;;;;;;14.43;62.36;101199.19;5070133;28;20557;-69
2022/11/25 07:14:06;;;;;;;20.52;4.85;;;;;;;14.11;64.06;101206.94;5071206;28;20032;-70
2022/11/25 07:16:33;;;;;;;15.93;4.47;;;;;;;14.17;63.10;101207.84;5067213;28;20486;-69
2022/11/25 07:19:00;;;;;;;19.23;5.00;;;;;;;14.44;62.69;101219.78;5072770;28;20044;-68
2022/11/25 07:21:28;;;;;;;7.57;3.60;;;;;;;14.37;62.79;101219.91;5072859;28;20040;-70
2022/11/25 07:23:54;;;;;;;13.98;3.95;;;;;;;14.58;62.16;101216.56;5068943;28;20036;-69
2022/11/25 07:26:25;;;;;;;20.40;5.55;;;;;;;14.48;62.39;101229.88;5071158;28;20070;-69
2022/11/25 07:28:53;;;;;;;17.10;5.43;;;;;;;13.91;63.82;101228.97;5072504;28;20407;-69
2022/11/25 07:31:24;;;;;;;18.15;4.68;;;;;;;14.42;62.22;101244.38;5072553;28;20032;-69
2022/11/25 07:33:52;;;;;;;14.23;5.53;;;;;;;14.45;61.61;101243.88;5067785;28;20037;-70
2022/11/25 07:36:17;;;;;;;13.02;4.55;;;;;;;14.35;62.53;101245.56;5073113;28;20519;-69
2022/11/25 07:38:43;;;;;;;11.00;4.70;;;;;;;14.45;61.68;101245.75;5072799;28;20044;-69
2022/11/25 07:41:11;;;;;;;20.75;5.15;;;;;;;14.46;61.78;101252.81;5072765;28;20036;-70
2022/11/25 07:43:37;;;;;;;13.63;4.85;;;;;;;14.36;61.80;101253.44;5056958;28;20044;-69
2022/11/25 07:46:14;;;;;;;17.85;5.53;;;;;;;14.26;62.21;101264.00;5052323;28;20029;-69
2022/11/25 07:48:40;;;;;;;10.25;4.88;;;;;;;14.27;62.19;101268.34;5052440;28;20157;-73
2022/11/25 07:51:17;;;;;;;22.40;5.13;;;;;;;14.43;61.97;101269.50;5065746;28;20180;-69
2022/11/25 07:53:43;;;;;;;11.25;4.47;;;;;;;14.52;61.74;101276.19;5071399;28;20041;-69
2022/11/25 07:56:08;;;;;;;19.70;5.00;;;;;;;14.51;61.40;101274.53;5072218;28;20036;-70
2022/11/25 07:58:33;;;;;;;17.33;5.05;;;;;;;14.54;61.65;101271.38;5071967;28;20496;-70
2022/11/25 08:01:03;;;;;;;20.48;5.00;;;;;;;14.04;63.21;101271.94;5071947;28;20124;-70
2022/11/25 08:03:32;;;;;;;19.80;5.03;;;;;;;14.49;62.15;101263.13;5071762;28;20082;-70
2022/11/25 08:06:09;;;;;;;11.90;4.85;;;;;;;14.43;62.17;101266.78;5071821;28;20027;-69
2022/11/25 08:08:35;;;;;;;21.75;5.75;;;;;;;14.24;63.70;101273.41;5072321;28;20029;-70
2022/11/25 08:11:06;;;;;;;17.33;6.50;;;;;;;14.20;63.82;101274.94;5072005;28;20043;-69
2022/11/25 08:13:31;;;;;;;17.25;5.78;;;;;;;13.94;65.57;101277.09;5071538;28;20397;-71
2022/11/25 08:15:58;;;;;;;16.67;6.22;;;;;;;13.73;66.33;101279.56;5062745;28;20059;-70
2022/11/25 08:18:24;;;;;;;22.60;6.38;;;;;;;14.00;65.87;101286.97;5051642;28;20041;-70
2022/11/25 08:20:49;;;;;;;21.58;7.80;;;;;;;14.31;64.07;101293.88;5065284;28;20369;-69
2022/11/25 08:23:14;;;;;;;10.73;5.45;;;;;;;14.36;63.74;101293.16;5071545;28;20217;-70
2022/11/25 08:25:40;;;;;;;16.92;7.30;;;;;;;14.64;63.20;101309.44;5071320;28;20060;-69
2022/11/25 08:28:06;;;;;;;15.18;7.32;;;;;;;14.30;63.98;101307.63;5071345;28;20044;-71
2022/11/25 08:30:32;;;;;;;18.63;7.38;;;;;;;14.70;62.71;101306.56;5071086;28;20097;-70
2022/11/25 08:32:57;;;;;;;16.95;7.05;;;;;;;13.91;66.07;101307.31;5071123;28;20037;-71
2022/11/25 08:35:23;;;;;;;20.27;7.75;;;;;;;14.65;63.33;101314.59;5071737;28;20287;-70
2022/11/25 08:37:48;;;;;;;14.63;7.40;;;;;;;14.82;62.45;101312.75;5071071;28;20381;-70
2022/11/25 08:40:14;;;;;;;15.68;7.32;;;;;;;14.64;63.74;101318.34;5052712;28;20182;-70
2022/11/25 08:42:39;;;;;;;14.43;8.40;;;;;;;14.60;63.22;101319.88;5051221;28;20111;-71
2022/11/25 08:45:05;;;;;;;23.40;8.02;;;;;;;14.32;65.34;101327.13;5051080;28;20120;-72
2022/11/25 08:47:31;;;;;;;15.73;7.88;;;;;;;14.45;65.34;101330.41;5051533;28;20091;-71
2022/11/25 08:49:56;;;;;;;23.33;8.00;;;;;;;14.40;64.62;101335.72;5054820;28;20040;-71
2022/11/25 08:52:22;;;;;;;21.33;7.60;;;;;;;13.93;66.92;101334.09;5070795;28;20095;-70
2022/11/25 08:54:47;;;;;;;21.20;7.85;;;;;;;14.49;65.31;101339.69;5070854;28;20036;-71
2022/11/25 08:57:13;;;;;;;18.95;8.75;;;;;;;14.62;65.34;101333.19;5070622;28;20075;-71
2022/11/25 08:59:39;;;;;;;20.45;8.57;;;;;;;14.75;64.71;101347.28;5071225;28;20039;-70
2022/11/25 09:02:05;;;;;;;12.35;7.60;;;;;;;14.49;66.65;101341.56;5070749;28;20032;-70
2022/11/25 09:04:31;;;;;;;17.30;7.75;;;;;;;14.15;66.70;101337.00;5069368;28;20056;-69
2022/11/25 09:06:56;;;;;;;18.95;10.13;;;;;;;13.92;68.29;101335.97;5070602;28;20122;-71
2022/11/25 09:09:22;;;;;;;27.08;9.82;;;;;;;14.44;66.46;101346.88;5070674;28;20321;-70
2022/11/25 09:11:47;;;;;;;21.30;9.55;;;;;;;14.29;66.85;101341.94;5071352;28;20024;-70
2022/11/25 09:14:13;;;;;;;28.10;9.30;;;;;;;15.32;63.78;101347.25;5070779;28;20155;-70
2022/11/25 09:16:38;;;;;;;19.00;8.45;;;;;;;14.58;65.41;101348.25;5066729;28;20491;-69
2022/11/25 09:19:05;;;;;;;16.95;5.38;;;;;;;13.74;67.61;101352.25;5070566;28;20227;-69
2022/11/25 09:21:31;;;;;;;16.55;5.30;;;;;;;14.72;65.44;101350.44;5070508;28;20043;-70
2022/11/25 09:23:56;;;;;;;17.42;5.93;;;;;;;14.33;66.51;101362.03;5070454;28;20036;-70
2022/11/25 09:26:35;;;;;;;21.50;6.90;;;;;;;14.15;67.21;101364.03;5070968;28;20032;-70
2022/11/25 09:29:01;;;;;;;13.32;5.53;;;;;;;14.24;67.45;101366.16;5069295;28;20086;-74
2022/11/25 09:31:27;;;;;;;13.60;4.85;;;;;;;14.39;66.13;101366.50;5070635;28;20102;-72
2022/11/25 09:33:52;;;;;;;14.48;4.80;;;;;;;14.39;66.12;101371.09;5070541;28;20512;-72
2022/11/25 09:36:19;;;;;;;15.90;6.03;;;;;;;14.77;65.01;101372.19;5052768;28;20033;-73
2022/11/25 09:38:45;;;;;;;10.45;4.82;;;;;;;14.55;65.83;101379.31;5050766;28;20060;-73
2022/11/25 09:47:43;;;;;;;10.40;3.38;;;;;;;14.70;65.12;101408.56;5008158;28;20137;-74
2022/11/25 09:50:34;;;;;;;18.08;3.63;;;;;;;14.31;65.68;101409.31;5013486;28;20068;-75
2022/11/25 09:53:24;;;;;;;8.77;3.42;;;;;;;14.23;66.53;101407.75;5029387;28;20540;-74
2022/11/25 09:55:53;;;;;;;13.20;3.80;;;;;;;14.30;65.60;101418.47;5031664;28;20041;-72
2022/11/25 09:58:30;;;;;;;12.48;2.97;;;;;;;14.39;65.42;101414.34;5031494;28;20453;-72
2022/11/25 10:00:56;;;;;;;16.60;5.43;;;;;;;14.25;66.43;101423.75;5031535;28;20033;-72
2022/11/25 10:03:32;;;;;;;10.68;3.35;;;;;;;14.23;66.24;101425.84;5031656;28;20188;-75
2022/11/25 10:06:05;;;;;;;6.47;2.30;;;;;;;14.49;65.58;101420.81;5031339;28;20033;-72
2022/11/25 10:08:39;;;;;;;11.25;3.45;;;;;;;14.29;65.73;101424.97;5032014;28;20029;-72
2022/11/25 10:11:41;;;;;;;10.25;3.78;;;;;;;15.04;64.01;101434.69;5031355;28;20056;-74
2022/11/25 10:14:11;;;;;;;8.60;3.17;;;;;;;14.89;64.28;101432.53;5031422;28;20425;-73
2022/11/25 10:16:36;;;;;;;9.05;3.13;;;;;;;15.06;63.83;101446.13;5027126;28;20033;-73
2022/11/25 10:19:14;;;;;;;12.18;3.53;;;;;;;15.35;62.96;101436.94;5031462;28;20586;-74
2022/11/25 10:21:40;;;;;;;12.57;3.08;;;;;;;14.96;63.66;101437.78;5031379;28;20409;-73
2022/11/25 10:24:17;;;;;;;11.00;2.63;;;;;;;15.21;62.97;101442.91;5051829;28;20040;-72
2022/11/25 10:26:46;;;;;;;10.38;3.03;;;;;;;14.78;64.53;101448.78;5074306;28;20063;-73
2022/11/25 10:29:19;;;;;;;13.40;3.20;;;;;;;14.83;64.67;101455.13;5073706;28;20097;-74
2022/11/25 10:31:44;;;;;;;14.93;3.00;;;;;;;14.63;64.92;101446.56;5071432;28;20041;-73
2022/11/25 10:34:25;;;;;;;10.55;3.22;;;;;;;15.88;61.21;101449.31;5072260;28;20044;-72
2022/11/25 10:36:53;;;;;;;13.27;3.95;;;;;;;15.10;63.15;101454.56;5073713;28;20431;-72
2022/11/25 10:39:23;;;;;;;11.23;4.00;;;;;;;15.38;62.30;101458.16;5071997;28;20633;-73
2022/11/25 10:42:02;;;;;;;14.15;3.65;;;;;;;14.76;64.17;101467.13;5073866;28;20055;-73
2022/11/25 10:44:39;;;;;;;11.90;5.35;;;;;;;15.64;62.32;101459.47;5073850;28;20035;-72
2022/11/25 10:47:50;;;;;;;15.63;4.35;;;;;;;15.85;61.07;101466.88;5073330;28;20037;-73
2022/11/25 10:50:25;;;;;;;10.88;3.30;;;;;;;15.62;62.68;101464.31;5011081;28;20054;-73
2022/11/25 10:53:01;;;;;;;12.68;3.72;;;;;;;15.79;61.28;101473.28;5010866;28;20050;-72
2022/11/25 10:55:31;;;;;;;9.98;3.08;;;;;;;15.10;63.20;101478.94;5010205;28;20049;-74
2022/11/25 10:57:57;;;;;;;14.68;3.25;;;;;;;15.56;61.35;101482.38;5010803;28;20097;-72
2022/11/25 11:00:28;;;;;;;14.90;4.00;;;;;;;15.60;61.89;101478.09;5010632;28;20044;-72
2022/11/25 11:02:54;;;;;;;;;;;;;;;16.14;60.47;101483.91;5010875;28;20485;-71
2022/11/25 11:05:24;;;;;;;13.63;3.97;;;;;;;16.07;60.20;101492.22;5010712;28;19953;-74
2022/11/25 11:08:08;;;;;;;16.48;3.85;;;;;;;15.26;62.06;101495.28;5010550;28;20069;-73
2022/11/25 11:10:34;;;;;;;19.63;5.00;;;;;;;16.04;60.65;101490.00;5010584;28;20044;-72
2022/11/25 11:13:03;;;;;;;13.63;3.58;;;;;;;15.99;60.19;101499.94;5010567;28;20042;-74
2022/11/25 11:15:47;;;;;;;17.70;4.13;;;;;;;15.44;62.76;101499.72;5006401;28;20034;-73
2022/11/25 11:18:18;;;;;;;13.95;3.53;;;;;;;15.66;62.36;101501.50;5010425;28;20545;-72
2022/11/25 11:20:50;;;;;;;11.73;2.88;;;;;;;15.58;62.35;101491.06;5029027;28;20047;-72
2022/11/25 11:23:16;;;;;;;11.85;3.47;;;;;;;15.79;61.49;101503.09;5055983;28;20133;-72
2022/11/25 11:25:55;;;;;;;19.70;3.72;;;;;;;16.27;59.88;101513.44;5072670;28;20086;-72
2022/11/25 11:28:37;;;;;;;16.35;3.50;;;;;;;15.80;60.94;101519.09;5071360;28;20071;-72
2022/11/25 11:31:14;;;;;;;11.18;2.63;;;;;;;15.50;62.35;101531.25;5072795;28;20067;-72
2022/11/25 11:33:54;;;;;;;9.88;2.83;;;;;;;16.16;60.38;101517.84;5071282;28;20500;-73